Terminal Aerodrome Forecast
Issued by NWS Binghamton, NY

Home | Current Version | Previous Version | Text Only | Print | Product List | Glossary On
Versions: 1 2 3 4 5 6 7 8 9 10 11 12 13 14 15 16 17 18 19 20 21
782
FTUS41 KBGM 260527
TAFBGM
TAF
KBGM 260527Z 2606/2706 25005KT P6SM SCT060
     FM261400 26008KT P6SM BKN045
     FM261800 26010KT P6SM -SHRA BKN035
     FM270000 24005KT P6SM BKN050=

USA.gov is the U.S. government's official web portal to all federal, state and local government web resources and services.